createdAt,value
2022-10-26T03:46:32.620Z,100.00
2022-10-26T03:49:36.069Z,100.00
2022-10-26T03:52:38.796Z,100.00
2022-10-26T03:55:44.658Z,100.00
2022-10-26T03:58:47.012Z,100.00
2022-10-26T04:01:52.754Z,100.00
2022-10-26T04:04:58.130Z,100.00
2022-10-26T04:08:04.685Z,100.00
2022-10-26T04:11:07.387Z,100.00
2022-10-26T04:14:09.640Z,100.00
2022-10-26T04:17:12.243Z,100.00
2022-10-26T04:20:15.265Z,100.00
2022-10-26T04:23:19.516Z,100.00
2022-10-26T04:26:21.829Z,100.00
2022-10-26T04:29:24.468Z,100.00
2022-10-26T04:32:27.020Z,100.00
2022-10-26T04:35:30.211Z,100.00
2022-10-26T04:38:32.573Z,100.00
2022-10-26T04:41:35.131Z,100.00
2022-10-26T04:44:37.422Z,100.00
2022-10-26T04:47:40.674Z,100.00
2022-10-26T04:50:42.957Z,100.00
2022-10-26T04:53:45.490Z,100.00
2022-10-26T04:56:47.723Z,100.00
2022-10-26T04:59:50.655Z,100.00
2022-10-26T05:03:02.865Z,100.00
2022-10-26T05:06:05.665Z,100.00
2022-10-26T05:09:08.011Z,100.00
2022-10-26T05:12:10.577Z,100.00
2022-10-26T05:15:15.071Z,100.00
2022-10-26T05:18:17.850Z,100.00
2022-10-26T05:21:20.225Z,100.00
2022-10-26T05:24:22.831Z,100.00
2022-10-26T05:27:25.181Z,100.00
2022-10-26T05:30:29.956Z,100.00
2022-10-26T05:33:32.230Z,100.00
2022-10-26T05:36:34.726Z,100.00
2022-10-26T05:39:37.035Z,100.00
2022-10-26T05:42:39.611Z,100.00
2022-10-26T05:45:41.870Z,100.00
2022-10-26T05:48:44.543Z,100.00
2022-10-26T05:51:46.897Z,100.00
2022-10-26T05:54:49.500Z,100.00
2022-10-26T05:57:52.144Z,100.00
2022-10-26T06:01:20.202Z,100.00
2022-10-26T06:04:38.750Z,100.00
2022-10-26T06:07:41.504Z,100.00
2022-10-26T06:10:44.321Z,100.00
2022-10-26T06:13:46.956Z,100.00
2022-10-26T06:16:57.563Z,100.00
2022-10-26T06:20:22.257Z,100.00
2022-10-26T06:23:44.864Z,100.00
2022-10-26T06:27:15.768Z,100.00
2022-10-26T06:30:23.316Z,99.32
2022-10-26T06:33:30.631Z,99.95
2022-10-26T06:36:34.102Z,100.00
2022-10-26T06:39:42.195Z,100.00
2022-10-26T06:42:45.037Z,99.96
2022-10-26T06:45:52.102Z,99.33
2022-10-26T06:49:10.971Z,99.84
2022-10-26T06:52:25.619Z,99.83
2022-10-26T06:55:37.394Z,97.46
2022-10-26T06:58:41.317Z,97.18
2022-10-26T07:01:44.299Z,95.65
2022-10-26T07:04:47.408Z,94.86
2022-10-26T07:07:50.249Z,95.10
2022-10-26T07:10:52.826Z,92.99
2022-10-26T07:13:55.569Z,92.98
2022-10-26T07:16:57.970Z,92.92
2022-10-26T07:20:00.550Z,92.15
2022-10-26T07:23:02.907Z,92.88
2022-10-26T07:26:05.657Z,93.70
2022-10-26T07:29:08.119Z,94.33
2022-10-26T07:32:10.764Z,94.56
2022-10-26T07:35:13.143Z,94.19
2022-10-26T07:38:15.641Z,93.54
2022-10-26T07:41:17.977Z,92.86
2022-10-26T07:44:20.487Z,92.88
2022-10-26T07:47:22.922Z,92.16
2022-10-26T07:50:25.894Z,91.97
2022-10-26T07:53:28.362Z,90.95
2022-10-26T07:56:30.944Z,90.75
2022-10-26T07:59:33.348Z,90.19
2022-10-26T08:02:36.467Z,89.62
2022-10-26T08:05:39.007Z,88.92
2022-10-26T08:08:44.951Z,89.33
2022-10-26T08:11:49.875Z,90.02
2022-10-26T08:14:52.166Z,90.30
2022-10-26T08:17:54.648Z,90.61
2022-10-26T08:21:10.690Z,90.88
2022-10-26T08:24:14.918Z,90.81
2022-10-26T08:27:17.842Z,91.22
2022-10-26T08:30:20.762Z,89.49
2022-10-26T08:33:24.078Z,86.68
2022-10-26T08:36:27.496Z,86.43
2022-10-26T08:39:30.859Z,86.29
2022-10-26T08:42:42.911Z,85.12
2022-10-26T08:45:56.711Z,83.97
2022-10-26T08:49:14.752Z,82.40
2022-10-26T08:52:20.460Z,81.58
2022-10-26T08:55:28.918Z,83.87
2022-10-26T08:58:39.817Z,84.55
2022-10-26T09:01:42.731Z,84.36
2022-10-26T09:04:45.501Z,84.37
2022-10-26T09:07:53.385Z,84.62
2022-10-26T09:11:17.926Z,83.90
2022-10-26T09:14:38.317Z,82.72
2022-10-26T09:17:46.680Z,83.13
2022-10-26T09:21:03.499Z,82.90
2022-10-26T09:24:21.982Z,81.87
2022-10-26T09:27:34.730Z,81.67
2022-10-26T09:30:37.802Z,81.48
2022-10-26T09:33:40.834Z,81.10
2022-10-26T09:36:42.967Z,81.35
2022-10-26T09:39:54.948Z,81.25
2022-10-26T09:42:59.982Z,81.37
2022-10-26T09:46:02.642Z,81.32
2022-10-26T09:49:08.604Z,82.52
2022-10-26T09:55:20.748Z,82.83
2022-10-26T09:58:28.795Z,82.81
2022-10-26T10:01:36.853Z,81.05
2022-10-26T10:04:48.176Z,80.01
2022-10-26T10:07:51.206Z,79.30
2022-10-26T10:10:59.183Z,79.62
2022-10-26T10:14:08.788Z,79.33
2022-10-26T10:17:22.660Z,79.87
2022-10-26T10:20:31.740Z,79.97
2022-10-26T10:23:49.771Z,81.32
2022-10-26T10:26:59.526Z,83.00
2022-10-26T10:30:22.431Z,83.76
2022-10-26T10:33:36.018Z,83.76
2022-10-26T10:36:40.025Z,84.74
2022-10-26T10:39:42.907Z,85.50
2022-10-26T10:42:47.704Z,86.01
2022-10-26T10:45:54.736Z,85.61
2022-10-26T10:49:06.666Z,85.10
2022-10-26T10:52:23.053Z,85.03
2022-10-26T10:55:26.897Z,85.02
2022-10-26T10:58:38.490Z,85.36
2022-10-26T11:01:52.155Z,84.39
2022-10-26T11:05:04.482Z,83.81
2022-10-26T11:08:12.600Z,83.87
2022-10-26T11:11:40.581Z,83.92
2022-10-26T11:14:52.383Z,82.85
2022-10-26T11:18:05.092Z,83.00
2022-10-26T11:21:28.959Z,83.37
2022-10-26T11:24:43.883Z,83.32
2022-10-26T11:27:55.923Z,83.11
2022-10-26T11:31:03.409Z,82.86
2022-10-26T11:34:46.146Z,82.81
2022-10-26T11:38:05.511Z,82.34
2022-10-26T11:41:26.036Z,83.77
2022-10-26T11:44:37.966Z,83.98
2022-10-26T11:47:48.153Z,84.33
2022-10-26T11:50:55.027Z,85.12
2022-10-26T11:54:06.130Z,85.32
2022-10-26T11:57:10.380Z,85.76
2022-10-26T12:00:13.028Z,86.73
2022-10-26T12:03:26.972Z,87.16
2022-10-26T12:06:33.081Z,87.30
2022-10-26T12:09:38.878Z,87.00
2022-10-26T12:13:08.870Z,85.72
2022-10-26T12:16:42.770Z,85.07
2022-10-26T12:19:51.388Z,83.08
2022-10-26T12:22:54.121Z,81.69
2022-10-26T12:26:24.365Z,81.37
2022-10-26T12:29:31.578Z,81.69
2022-10-26T12:32:33.797Z,80.81
2022-10-26T12:35:39.331Z,80.36
2022-10-26T12:38:41.586Z,80.63
2022-10-26T12:41:56.155Z,80.52
2022-10-26T12:44:58.404Z,80.02
2022-10-26T12:48:10.671Z,80.39
2022-10-26T12:51:24.554Z,80.62
2022-10-26T12:54:45.881Z,80.11
2022-10-26T12:58:00.178Z,80.40
2022-10-26T13:01:03.434Z,80.29
2022-10-26T13:04:38.318Z,80.15
2022-10-26T13:07:41.762Z,79.65
2022-10-26T13:11:13.957Z,78.88
2022-10-26T13:14:21.936Z,78.89
2022-10-26T13:17:27.174Z,79.42
2022-10-26T13:20:31.920Z,79.44
2022-10-26T13:23:37.791Z,79.32
2022-10-26T13:27:19.430Z,79.13
2022-10-26T13:30:46.248Z,78.80
2022-10-26T13:33:52.341Z,79.30
2022-10-26T13:37:14.153Z,79.07
2022-10-26T13:40:23.377Z,78.74
2022-10-26T13:43:27.406Z,78.84
2022-10-26T13:46:35.708Z,78.14
2022-10-26T13:49:44.216Z,79.12
2022-10-26T13:53:01.096Z,78.56
2022-10-26T13:56:21.715Z,79.56
2022-10-26T13:59:26.526Z,78.73
2022-10-26T14:02:32.435Z,79.21
2022-10-26T14:05:50.867Z,81.23
2022-10-26T14:08:57.610Z,81.64
2022-10-26T14:12:02.107Z,80.79
2022-10-26T14:15:09.164Z,81.19
2022-10-26T14:18:18.064Z,81.03
2022-10-26T14:21:22.616Z,79.84
2022-10-26T14:24:45.646Z,81.23
2022-10-26T14:27:49.716Z,81.24
2022-10-26T14:30:52.559Z,81.31
2022-10-26T14:33:57.150Z,81.21
2022-10-26T14:37:04.999Z,82.72
2022-10-26T14:40:15.861Z,83.37
2022-10-26T14:43:22.909Z,83.22
2022-10-26T14:46:27.216Z,82.74
2022-10-26T14:49:30.095Z,83.59
2022-10-26T14:52:35.858Z,83.92
2022-10-26T14:55:50.959Z,84.65
2022-10-26T14:58:53.793Z,84.95
2022-10-26T15:02:18.137Z,84.01
2022-10-26T15:05:23.619Z,85.33
2022-10-26T15:08:55.832Z,86.11
2022-10-26T15:11:59.619Z,84.45
2022-10-26T15:15:14.433Z,85.54
2022-10-26T15:18:23.714Z,86.95
2022-10-26T15:21:40.130Z,88.82
2022-10-26T15:24:43.351Z,89.36
2022-10-26T15:27:47.944Z,89.65
2022-10-26T15:31:23.401Z,89.81
2022-10-26T15:34:26.196Z,90.20
2022-10-26T15:37:28.580Z,89.36
2022-10-26T15:40:31.921Z,89.90
2022-10-26T15:43:34.219Z,90.77
